TimeCDT,TemperatureF,Dew PointF,Humidity,Sea Level PressureIn,VisibilityMPH,Wind Direction,Wind SpeedMPH,Gust SpeedMPH,PrecipitationIn,Events,Conditions,WindDirDegrees,DateUTC
12:53 AM,62.6,35.6,37,30.07,10.0,NNE,17.3,-,N/A,,Clear,30,2013-03-21 05:53:00
1:53 AM,61.0,37.0,41,30.04,10.0,NE,21.9,-,N/A,,Clear,40,2013-03-21 06:53:00
2:53 AM,60.1,36.0,41,30.03,10.0,NE,18.4,-,N/A,,Clear,40,2013-03-21 07:53:00
3:53 AM,59.0,37.9,46,30.01,10.0,NE,18.4,-,N/A,,Clear,50,2013-03-21 08:53:00
4:53 AM,57.9,37.0,46,30.01,10.0,ENE,11.5,-,N/A,,Clear,60,2013-03-21 09:53:00
5:53 AM,57.9,37.9,47,30.01,10.0,ENE,16.1,-,N/A,,Clear,70,2013-03-21 10:53:00
6:53 AM,57.0,37.0,47,30.03,10.0,ENE,17.3,-,N/A,,Clear,70,2013-03-21 11:53:00
7:53 AM,57.0,39.0,51,30.04,10.0,ENE,15.0,-,N/A,,Clear,70,2013-03-21 12:53:00
8:53 AM,57.9,36.0,44,30.05,10.0,East,16.1,-,N/A,,Clear,80,2013-03-21 13:53:00
9:53 AM,59.0,37.0,44,30.06,10.0,ENE,13.8,-,N/A,,Clear,70,2013-03-21 14:53:00
10:53 AM,61.0,36.0,39,30.05,10.0,East,12.7,-,N/A,,Clear,80,2013-03-21 15:53:00
11:53 AM,64.0,37.9,38,30.04,10.0,ENE,11.5,-,N/A,,Clear,60,2013-03-21 16:53:00
12:53 PM,64.0,36.0,35,30.02,10.0,East,8.1,-,N/A,,Clear,100,2013-03-21 17:53:00
1:53 PM,64.9,37.0,36,29.98,10.0,ESE,8.1,-,N/A,,Clear,120,2013-03-21 18:53:00
2:53 PM,66.0,35.1,32,29.96,10.0,SSE,12.7,-,N/A,,Partly Cloudy,150,2013-03-21 19:53:00
3:53 PM,66.9,34.0,30,29.92,10.0,ESE,10.4,-,N/A,,Partly Cloudy,120,2013-03-21 20:53:00
4:53 PM,64.9,37.9,37,29.90,10.0,SSE,15.0,-,N/A,,Partly Cloudy,150,2013-03-21 21:53:00
5:53 PM,64.0,37.9,38,29.90,10.0,SE,13.8,-,N/A,,Mostly Cloudy,140,2013-03-21 22:53:00
6:53 PM,63.0,39.9,43,29.88,10.0,SE,10.4,-,N/A,,Scattered Clouds,130,2013-03-21 23:53:00
7:53 PM,61.0,42.1,50,29.89,10.0,SE,9.2,-,N/A,,Partly Cloudy,130,2013-03-22 00:53:00
8:53 PM,61.0,43.0,52,29.89,10.0,ESE,9.2,-,N/A,,Overcast,120,2013-03-22 01:53:00
9:53 PM,61.0,45.0,56,29.87,10.0,ESE,11.5,-,N/A,,Partly Cloudy,120,2013-03-22 02:53:00
10:53 PM,61.0,46.0,58,29.88,10.0,ESE,10.4,-,N/A,,Clear,120,2013-03-22 03:53:00
11:53 PM,62.1,46.9,58,29.87,10.0,ESE,10.4,-,N/A,,Overcast,120,2013-03-22 04:53:00